createdAt,value
2023-01-19T00:00:49.837Z,99858.31
2023-01-19T00:03:22.275Z,99859.16
2023-01-19T00:05:54.579Z,99863.50
2023-01-19T00:08:27.103Z,99867.97
2023-01-19T00:10:59.628Z,99861.97
2023-01-19T00:13:32.222Z,99862.00
2023-01-19T00:16:04.421Z,99865.59
2023-01-19T00:18:36.546Z,99859.50
2023-01-19T00:21:08.600Z,99865.41
2023-01-19T00:23:41.257Z,99864.59
2023-01-19T00:26:17.259Z,99868.13
2023-01-19T00:28:50.407Z,99873.25
2023-01-19T00:31:25.246Z,99879.22
2023-01-19T00:33:57.326Z,99864.53
2023-01-19T00:36:29.455Z,99879.06
2023-01-19T00:39:01.628Z,99876.63
2023-01-19T00:41:56.427Z,99881.72
2023-01-19T00:44:29.127Z,99886.13
2023-01-19T00:47:04.042Z,99876.63
2023-01-19T00:49:37.303Z,99878.31
2023-01-19T00:52:09.425Z,99868.81
2023-01-19T00:54:41.445Z,99874.03
2023-01-19T00:57:13.516Z,99871.47
2023-01-19T00:59:45.931Z,99872.34
2023-01-19T01:02:18.205Z,99880.16
2023-01-19T01:04:54.984Z,99874.97
2023-01-19T01:07:27.013Z,99873.84
2023-01-19T01:09:58.983Z,99874.66
2023-01-19T01:12:30.947Z,99884.28
2023-01-19T01:15:04.745Z,99875.72
2023-01-19T01:17:38.196Z,99882.50
2023-01-19T01:20:11.556Z,99881.66
2023-01-19T01:22:48.906Z,99888.59
2023-01-19T01:25:23.555Z,99884.25
2023-01-19T01:27:55.666Z,99878.97
2023-01-19T01:30:27.849Z,99881.41
2023-01-19T01:33:00.165Z,99881.47
2023-01-19T01:35:34.100Z,99880.50
2023-01-19T01:38:06.599Z,99875.31
2023-01-19T01:40:42.206Z,99881.34
2023-01-19T01:43:17.870Z,99877.78
2023-01-19T01:45:49.899Z,99872.63
2023-01-19T01:48:28.222Z,99875.28
2023-01-19T01:51:25.791Z,99871.81
2023-01-19T01:54:30.417Z,99867.59
2023-01-19T01:57:08.700Z,99865.91
2023-01-19T01:59:45.797Z,99870.31
2023-01-19T02:02:45.910Z,99873.66
2023-01-19T02:05:34.939Z,99880.63
2023-01-19T02:08:44.463Z,99877.19
2023-01-19T02:11:35.696Z,99877.09
2023-01-19T02:14:08.181Z,99873.72
2023-01-19T02:16:40.404Z,99868.66
2023-01-19T02:19:19.535Z,99879.97
2023-01-19T02:22:10.038Z,99872.28
2023-01-19T02:24:43.096Z,99873.16
2023-01-19T02:27:15.918Z,99886.00
2023-01-19T02:29:48.272Z,99877.25
2023-01-19T02:32:23.653Z,99872.13
2023-01-19T02:34:56.003Z,99872.97
2023-01-19T02:37:34.300Z,99878.97
2023-01-19T02:40:12.531Z,99881.63
2023-01-19T02:42:50.366Z,99881.69
2023-01-19T02:45:23.584Z,99883.41
2023-01-19T02:47:55.609Z,99883.25
2023-01-19T02:50:49.556Z,99876.44
2023-01-19T02:53:35.860Z,99874.06
2023-01-19T02:56:44.544Z,99877.47
2023-01-19T02:59:48.798Z,99880.72
2023-01-19T03:02:55.248Z,99872.91
2023-01-19T03:05:37.881Z,99866.19
2023-01-19T03:08:18.969Z,99876.44
2023-01-19T03:11:12.027Z,99873.88
2023-01-19T03:14:01.646Z,99873.16
2023-01-19T03:16:43.178Z,99877.28
2023-01-19T03:19:20.581Z,99882.50
2023-01-19T03:22:04.404Z,99879.16
2023-01-19T03:24:43.374Z,99873.97
2023-01-19T03:27:30.831Z,99874.09
2023-01-19T03:30:14.064Z,99877.50
2023-01-19T03:32:54.852Z,99882.63
2023-01-19T03:35:32.303Z,99884.34
2023-01-19T03:38:12.667Z,99878.28
2023-01-19T03:40:47.712Z,99885.19
2023-01-19T03:43:20.993Z,99879.13
2023-01-19T03:45:53.924Z,99896.28
2023-01-19T03:48:26.609Z,99894.66
2023-01-19T03:51:02.371Z,99889.44
2023-01-19T03:53:34.781Z,99892.84
2023-01-19T03:56:31.907Z,99894.59
2023-01-19T03:59:06.006Z,99899.81
2023-01-19T04:01:38.111Z,99900.59
2023-01-19T04:04:10.141Z,99895.47
2023-01-19T04:06:43.738Z,99896.25
2023-01-19T04:09:15.735Z,99900.69
2023-01-19T04:11:47.815Z,99902.34
2023-01-19T04:14:19.935Z,99893.88
2023-01-19T04:16:52.211Z,99900.63
2023-01-19T04:19:24.978Z,99902.38
2023-01-19T04:21:57.051Z,99903.25
2023-01-19T04:24:29.326Z,99901.44
2023-01-19T04:27:01.336Z,99896.34
2023-01-19T04:29:33.356Z,99901.38
2023-01-19T04:32:05.795Z,99898.88
2023-01-19T04:34:37.761Z,99906.69
2023-01-19T04:37:10.453Z,99898.09
2023-01-19T04:39:42.407Z,99901.59
2023-01-19T04:42:17.623Z,99905.69
2023-01-19T04:44:49.647Z,99905.47
2023-01-19T04:47:21.688Z,99906.47
2023-01-19T04:49:53.641Z,99904.03
2023-01-19T04:52:26.267Z,99906.59
2023-01-19T04:54:58.240Z,99909.19
2023-01-19T04:57:33.682Z,99904.72
2023-01-19T05:00:07.589Z,99908.19
2023-01-19T05:02:42.347Z,99912.41
2023-01-19T05:05:17.349Z,99913.41
2023-01-19T05:07:49.330Z,99916.88
2023-01-19T05:10:21.471Z,99922.06
2023-01-19T05:12:53.418Z,99916.75
2023-01-19T05:15:25.512Z,99922.00
2023-01-19T05:17:58.208Z,99921.06
2023-01-19T05:20:30.328Z,99916.78
2023-01-19T05:23:02.777Z,99922.84
2023-01-19T05:25:35.134Z,99936.78
2023-01-19T05:28:07.895Z,99932.41
2023-01-19T05:30:40.034Z,99939.31
2023-01-19T05:33:12.111Z,99934.94
2023-01-19T05:35:44.073Z,99934.16
2023-01-19T05:38:20.813Z,99937.63
2023-01-19T05:40:58.948Z,99926.47
2023-01-19T05:43:30.963Z,99935.16
2023-01-19T05:46:06.558Z,99936.72
2023-01-19T05:48:38.610Z,99933.13
2023-01-19T05:51:10.906Z,99935.84
2023-01-19T05:53:43.709Z,99942.72
2023-01-19T05:56:15.720Z,99931.66
2023-01-19T05:58:47.728Z,99946.41
2023-01-19T06:01:19.827Z,99937.63
2023-01-19T06:03:52.134Z,99936.88
2023-01-19T06:06:24.146Z,99947.19
2023-01-19T06:08:56.209Z,99942.94
2023-01-19T06:11:28.889Z,99949.84
2023-01-19T06:14:01.047Z,99954.13
2023-01-19T06:16:33.107Z,99955.72
2023-01-19T06:19:05.237Z,99948.16
2023-01-19T06:21:37.958Z,99938.72
2023-01-19T06:24:10.235Z,99951.72
2023-01-19T06:26:44.953Z,99960.13
2023-01-19T06:29:18.822Z,99960.31
2023-01-19T06:31:50.972Z,99962.91
2023-01-19T06:34:27.187Z,99967.19
2023-01-19T06:36:59.580Z,99974.97
2023-01-19T06:39:31.678Z,99963.00
2023-01-19T06:42:03.945Z,99975.16
2023-01-19T06:44:38.804Z,99975.94
2023-01-19T06:47:14.993Z,99988.06
2023-01-19T06:49:48.295Z,99988.09
2023-01-19T06:52:20.754Z,99988.13
2023-01-19T06:54:52.754Z,99985.53
2023-01-19T06:57:26.010Z,99990.66
2023-01-19T07:00:00.797Z,99991.63
2023-01-19T07:02:33.245Z,99996.81
2023-01-19T07:05:07.070Z,100007.94
2023-01-19T07:07:39.797Z,100004.53
2023-01-19T07:10:16.495Z,100007.09
2023-01-19T07:12:48.961Z,100018.22
2023-01-19T07:15:23.109Z,100017.22
2023-01-19T07:18:00.156Z,100024.19
2023-01-19T07:20:32.324Z,100024.09
2023-01-19T07:23:04.720Z,100029.19
2023-01-19T07:25:36.785Z,100028.34
2023-01-19T07:28:09.315Z,100029.13
2023-01-19T07:30:46.360Z,100032.63
2023-01-19T07:33:18.522Z,100039.50
2023-01-19T07:35:51.080Z,100046.38
2023-01-19T07:38:23.152Z,100042.81
2023-01-19T07:41:05.372Z,100049.94
2023-01-19T07:43:37.402Z,100053.34
2023-01-19T07:46:10.144Z,100058.47
2023-01-19T07:48:44.500Z,100052.44
2023-01-19T07:51:19.636Z,100054.25
2023-01-19T07:53:51.908Z,100068.88
2023-01-19T07:56:24.861Z,100070.75
2023-01-19T07:58:56.935Z,100072.38
2023-01-19T08:01:29.868Z,100077.47
2023-01-19T08:04:02.017Z,100076.75
2023-01-19T08:06:37.641Z,100087.78
2023-01-19T08:09:10.127Z,100084.31
2023-01-19T08:11:42.745Z,100088.66
2023-01-19T08:14:14.753Z,100105.91
2023-01-19T08:16:46.869Z,100100.06
2023-01-19T08:19:19.571Z,100107.91
2023-01-19T08:21:52.363Z,100107.06
2023-01-19T08:24:28.641Z,100101.19
2023-01-19T08:27:04.155Z,100105.38
2023-01-19T08:29:36.540Z,100119.06
2023-01-19T08:32:08.749Z,100106.31
2023-01-19T08:34:40.875Z,100110.72
2023-01-19T08:37:12.886Z,100112.56
2023-01-19T08:39:44.876Z,100116.91
2023-01-19T08:42:16.863Z,100116.91
2023-01-19T08:44:57.539Z,100122.22
2023-01-19T08:47:30.144Z,100117.81
2023-01-19T08:50:02.337Z,100117.00
2023-01-19T08:52:34.323Z,100130.09
2023-01-19T08:55:07.623Z,100126.72
2023-01-19T08:57:40.044Z,100132.78
2023-01-19T09:00:13.187Z,100130.13
2023-01-19T09:02:45.454Z,100132.69
2023-01-19T09:05:18.353Z,100125.00
2023-01-19T09:07:51.831Z,100138.78
2023-01-19T09:10:23.814Z,100136.91
2023-01-19T09:12:55.815Z,100149.88
2023-01-19T09:15:28.329Z,100151.66
2023-01-19T09:18:01.173Z,100149.03
2023-01-19T09:20:36.187Z,100158.25
2023-01-19T09:23:13.197Z,100160.00
2023-01-19T09:25:47.370Z,100162.63
2023-01-19T09:28:19.349Z,100164.34
2023-01-19T09:30:52.242Z,100160.13
2023-01-19T09:33:24.926Z,100164.59
2023-01-19T09:52:37.446Z,100201.59
2023-01-19T09:55:26.458Z,100195.53
2023-01-19T09:57:59.282Z,100205.00
2023-01-19T10:00:33.628Z,100202.44
2023-01-19T10:03:14.448Z,100206.91
2023-01-19T10:06:03.817Z,100207.69
2023-01-19T10:08:57.585Z,100212.91
2023-01-19T10:11:51.859Z,100215.50
2023-01-19T10:14:40.549Z,100216.34
2023-01-19T10:17:32.483Z,100218.09
2023-01-19T10:20:15.383Z,100217.28
2023-01-19T10:22:49.969Z,100220.72
2023-01-19T10:25:27.110Z,100220.63
2023-01-19T10:28:01.428Z,100222.81
2023-01-19T10:30:33.911Z,100221.84
2023-01-19T10:33:06.464Z,100212.28
2023-01-19T10:35:38.570Z,100218.34
2023-01-19T10:38:15.584Z,100213.16
2023-01-19T10:41:46.236Z,100218.53
2023-01-19T10:44:30.246Z,100228.09
2023-01-19T10:47:05.201Z,100224.75
2023-01-19T10:49:44.955Z,100225.59
2023-01-19T10:52:36.387Z,100232.50
2023-01-19T10:55:40.666Z,100237.72
2023-01-19T10:58:35.160Z,100236.94
2023-01-19T11:01:24.872Z,100242.09
2023-01-19T11:04:05.793Z,100236.06
2023-01-19T11:06:40.423Z,100231.81
2023-01-19T11:09:25.948Z,100246.63
2023-01-19T11:12:00.094Z,100244.00
2023-01-19T11:14:32.404Z,100245.75
2023-01-19T11:17:04.472Z,100244.94
2023-01-19T11:19:36.527Z,100248.38
2023-01-19T11:22:24.265Z,100254.56
2023-01-19T11:25:02.108Z,100253.81
2023-01-19T11:27:37.771Z,100236.53
2023-01-19T11:30:26.038Z,100250.34
2023-01-19T11:32:58.233Z,100247.84
2023-01-19T11:35:41.685Z,100251.41
2023-01-19T11:38:19.843Z,100254.13
2023-01-19T11:40:58.665Z,100247.28
2023-01-19T11:43:47.468Z,100257.69
2023-01-19T11:46:24.191Z,100258.59
2023-01-19T11:49:05.891Z,100261.25
2023-01-19T11:52:05.329Z,100262.19
2023-01-19T11:54:56.405Z,100254.47
2023-01-19T11:57:28.446Z,100256.19
2023-01-19T12:00:05.333Z,100256.31
2023-01-19T12:02:48.096Z,100260.72
2023-01-19T12:05:21.644Z,100259.88
2023-01-19T12:07:56.775Z,100261.63
2023-01-19T12:10:35.325Z,100263.41
2023-01-19T12:13:18.750Z,100266.03
2023-01-19T12:16:00.830Z,100259.25
2023-01-19T12:18:48.444Z,100257.50
2023-01-19T12:21:21.237Z,100254.09
2023-01-19T12:24:16.543Z,100259.31
2023-01-19T12:26:59.527Z,100267.13
2023-01-19T12:29:35.208Z,100270.59
2023-01-19T12:32:17.706Z,100272.31
2023-01-19T12:35:29.704Z,100278.34
2023-01-19T12:38:37.118Z,100279.25
2023-01-19T12:41:37.453Z,100271.44
2023-01-19T12:44:12.448Z,100277.50
2023-01-19T12:46:50.243Z,100282.72
2023-01-19T12:50:34.399Z,100287.00
2023-01-19T12:53:19.740Z,100287.91
2023-01-19T12:56:01.254Z,100290.56
2023-01-19T12:58:51.574Z,100291.47
2023-01-19T13:06:08.211Z,100282.88
2023-01-19T13:09:01.255Z,100284.66
2023-01-19T13:11:53.745Z,100271.69
2023-01-19T13:14:38.757Z,100275.16
2023-01-19T13:21:04.916Z,100284.69
2023-01-19T13:23:51.565Z,100284.72
2023-01-19T13:26:39.370Z,100287.31
2023-01-19T13:29:16.099Z,100283.81
2023-01-19T13:31:49.181Z,100295.06
2023-01-19T13:34:25.551Z,100306.28
2023-01-19T13:38:02.197Z,100311.44
2023-01-19T13:40:40.874Z,100310.50
2023-01-19T13:43:28.454Z,100309.59
2023-01-19T13:46:01.041Z,100319.09
2023-01-19T13:48:33.569Z,100331.22
2023-01-19T13:51:10.624Z,100332.94
2023-01-19T13:54:02.324Z,100336.38
2023-01-19T13:56:34.325Z,100338.97
2023-01-19T13:59:13.984Z,100352.78
2023-01-19T14:01:47.037Z,100355.25
2023-01-19T14:04:35.820Z,100359.59
2023-01-19T14:07:26.157Z,100360.47
2023-01-19T14:10:05.782Z,100361.41
2023-01-19T14:12:48.121Z,100364.88
2023-01-19T14:15:28.173Z,100387.31
2023-01-19T14:19:31.460Z,100380.19
2023-01-19T14:22:05.518Z,100395.63
2023-01-19T14:24:38.843Z,100389.53
2023-01-19T14:28:32.753Z,100391.16
2023-01-19T14:31:27.622Z,100391.13
2023-01-19T14:33:59.683Z,100404.06
2023-01-19T14:36:40.041Z,100403.16
2023-01-19T14:39:23.503Z,100412.63
2023-01-19T14:42:00.080Z,100417.78
2023-01-19T14:44:36.722Z,100415.09
2023-01-19T14:47:41.678Z,100423.69
2023-01-19T14:50:35.415Z,100426.28
2023-01-19T14:53:17.366Z,100431.53
2023-01-19T14:55:59.369Z,100435.84
2023-01-19T14:58:35.479Z,100441.97
2023-01-19T15:01:11.247Z,100446.25
2023-01-19T15:03:45.420Z,100439.25
2023-01-19T15:06:20.897Z,100440.97
2023-01-19T15:08:53.994Z,100445.22
2023-01-19T15:11:35.601Z,100446.84
2023-01-19T15:14:12.199Z,100449.34
2023-01-19T15:16:44.476Z,100453.66
2023-01-19T15:19:17.765Z,100457.16
2023-01-19T15:21:49.835Z,100465.75
2023-01-19T15:24:21.992Z,100464.88
2023-01-19T15:27:01.688Z,100470.00
2023-01-19T15:29:34.239Z,100474.16
2023-01-19T15:32:13.194Z,100472.47
2023-01-19T15:34:47.850Z,100474.19
2023-01-19T15:37:20.117Z,100481.09
2023-01-19T15:39:52.489Z,100480.28
2023-01-19T15:42:24.520Z,100488.81
2023-01-19T15:44:56.597Z,100492.25
2023-01-19T15:47:28.562Z,100495.66
2023-01-19T15:50:00.632Z,100500.78
2023-01-19T15:52:32.703Z,100495.56
2023-01-19T15:55:05.290Z,100498.94
2023-01-19T15:57:37.318Z,100510.19
2023-01-19T16:00:14.955Z,100512.03
2023-01-19T16:02:47.162Z,100518.16
2023-01-19T16:05:19.611Z,100523.25
2023-01-19T16:07:51.742Z,100519.81
2023-01-19T16:10:23.834Z,100528.41
2023-01-19T16:12:55.782Z,100532.56
2023-01-19T16:15:28.968Z,100532.56
2023-01-19T16:18:01.065Z,100537.63
2023-01-19T16:20:33.092Z,100531.53
2023-01-19T16:23:21.100Z,100537.56
2023-01-19T16:25:59.029Z,100535.78
2023-01-19T16:28:31.988Z,100541.72
2023-01-19T16:31:04.901Z,100533.88
2023-01-19T16:33:36.908Z,100538.16
2023-01-19T16:36:30.993Z,100539.09
2023-01-19T16:39:10.783Z,100548.50
2023-01-19T16:41:45.087Z,100544.94
2023-01-19T16:44:17.769Z,100546.56
2023-01-19T16:46:52.636Z,100553.47
2023-01-19T16:49:28.531Z,100549.13
2023-01-19T16:52:01.332Z,100562.03
2023-01-19T16:54:33.439Z,100562.81
2023-01-19T16:57:05.479Z,100567.19
2023-01-19T16:59:40.348Z,100571.53
2023-01-19T17:02:12.607Z,100574.13
2023-01-19T17:04:44.654Z,100578.38
2023-01-19T17:07:18.998Z,100587.00
2023-01-19T17:09:51.313Z,100588.66
2023-01-19T17:12:23.411Z,100594.69
2023-01-19T17:14:55.486Z,100595.53
2023-01-19T17:17:27.734Z,100592.03
2023-01-19T17:20:00.358Z,100594.59
2023-01-19T17:22:32.455Z,100602.31
2023-01-19T17:25:04.975Z,100606.56
2023-01-19T17:27:37.095Z,100603.91
2023-01-19T17:30:10.535Z,100610.78
2023-01-19T17:32:42.770Z,100614.13
2023-01-19T17:35:14.799Z,100620.19
2023-01-19T17:37:46.807Z,100623.78
2023-01-19T17:40:18.843Z,100626.44
2023-01-19T17:42:50.929Z,100625.53
2023-01-19T17:45:22.910Z,100626.44
2023-01-19T17:47:57.879Z,100626.44
2023-01-19T17:50:32.220Z,100637.53
2023-01-19T17:53:04.360Z,100642.69
2023-01-19T17:55:36.694Z,100636.59
2023-01-19T17:58:08.669Z,100637.25
2023-01-19T18:00:41.388Z,100640.47
2023-01-19T18:03:13.451Z,100638.63
2023-01-19T18:05:54.244Z,100639.28
2023-01-19T18:08:26.308Z,100641.84
2023-01-19T18:11:00.494Z,100641.81
2023-01-19T18:13:32.805Z,100644.31
2023-01-19T18:16:08.992Z,100649.28
2023-01-19T18:18:41.431Z,100650.94
2023-01-19T18:21:15.464Z,100658.84
2023-01-19T18:23:49.303Z,100656.03
2023-01-19T18:26:23.361Z,100656.13
2023-01-19T18:29:00.288Z,100659.59
2023-01-19T18:31:32.691Z,100663.88
2023-01-19T18:34:05.045Z,100662.94
2023-01-19T18:36:37.525Z,100667.34
2023-01-19T18:39:10.335Z,100671.66
2023-01-19T18:41:42.869Z,100672.50
2023-01-19T18:44:15.584Z,100676.78
2023-01-19T18:46:48.433Z,100677.47
2023-01-19T18:49:25.829Z,100668.09
2023-01-19T18:51:57.815Z,100675.63
2023-01-19T18:54:29.840Z,100673.78
2023-01-19T18:57:01.802Z,100673.88
2023-01-19T18:59:34.036Z,100677.25
2023-01-19T19:02:08.251Z,100675.38
2023-01-19T19:04:41.465Z,100673.63
2023-01-19T19:07:13.640Z,100679.69
2023-01-19T19:09:45.595Z,100673.44
2023-01-19T19:12:17.648Z,100685.44
2023-01-19T19:14:50.242Z,100686.19
2023-01-19T19:17:22.219Z,100694.09
2023-01-19T19:19:54.246Z,100697.34
2023-01-19T19:22:29.901Z,100700.72
2023-01-19T19:25:01.958Z,100697.34
2023-01-19T19:27:33.993Z,100707.53
2023-01-19T19:30:08.663Z,100706.78
2023-01-19T19:32:40.650Z,100705.84
2023-01-19T19:35:12.687Z,100705.78
2023-01-19T19:37:44.703Z,100709.34
2023-01-19T19:40:17.849Z,100709.31
2023-01-19T19:42:49.832Z,100709.31
2023-01-19T19:45:21.866Z,100714.53
2023-01-19T19:47:59.091Z,100709.22
2023-01-19T19:50:31.472Z,100714.16
2023-01-19T19:53:03.673Z,100713.31
2023-01-19T19:55:35.707Z,100716.78
2023-01-19T19:58:08.780Z,100715.72
2023-01-19T20:00:42.841Z,100720.03
2023-01-19T20:03:14.814Z,100728.66
2023-01-19T20:05:47.771Z,100731.19
2023-01-19T20:08:19.817Z,100735.53
2023-01-19T20:10:51.800Z,100736.31
2023-01-19T20:13:23.804Z,100737.06
2023-01-19T20:15:55.823Z,100745.25
2023-01-19T20:18:27.858Z,100747.00
2023-01-19T20:21:00.548Z,100750.41
2023-01-19T20:23:33.721Z,100749.34
2023-01-19T20:26:08.159Z,100751.72
2023-01-19T20:28:40.330Z,100761.94
2023-01-19T20:31:19.578Z,100758.38
2023-01-19T20:33:54.119Z,100759.03
2023-01-19T20:36:26.227Z,100764.38
2023-01-19T20:38:58.898Z,100769.59
2023-01-19T20:41:31.060Z,100770.47
2023-01-19T20:44:03.091Z,100777.44
2023-01-19T20:46:35.104Z,100768.78
2023-01-19T20:49:07.526Z,100772.44
2023-01-19T20:51:43.493Z,100785.53
2023-01-19T20:54:19.210Z,100784.53
2023-01-19T20:56:51.206Z,100793.22
2023-01-19T20:59:24.038Z,100786.16
2023-01-19T21:01:56.198Z,100795.91
2023-01-19T21:04:28.359Z,100798.44
2023-01-19T21:07:01.032Z,100803.72
2023-01-19T21:09:33.027Z,100797.88
2023-01-19T21:12:08.029Z,100808.16
2023-01-19T21:14:42.114Z,100806.38
2023-01-19T21:17:17.721Z,100809.03
2023-01-19T21:19:49.746Z,100808.16
2023-01-19T21:22:21.796Z,100809.00
2023-01-19T21:24:53.786Z,100816.72
2023-01-19T21:27:25.914Z,100817.66
2023-01-19T21:30:02.350Z,100826.25
2023-01-19T21:32:34.429Z,100826.13
2023-01-19T21:35:07.087Z,100836.47
2023-01-19T21:37:39.119Z,100826.84
2023-01-19T21:40:12.408Z,100828.56
2023-01-19T21:42:44.379Z,100839.44
2023-01-19T21:45:19.510Z,100841.25
2023-01-19T21:47:51.630Z,100843.56
2023-01-19T21:50:23.796Z,100853.88
2023-01-19T21:52:55.900Z,100860.59
2023-01-19T21:55:28.253Z,100868.22
2023-01-19T21:58:00.329Z,100868.25
2023-01-19T22:00:32.483Z,100872.50
2023-01-19T22:03:05.027Z,100871.66
2023-01-19T22:05:37.938Z,100881.09
2023-01-19T22:08:10.010Z,100881.09
2023-01-19T22:10:42.050Z,100888.13
2023-01-19T22:13:14.233Z,100892.41
2023-01-19T22:15:46.207Z,100895.91
2023-01-19T22:18:18.399Z,100913.66
2023-01-19T22:20:50.373Z,100912.53
2023-01-19T22:23:22.468Z,100917.59
2023-01-19T22:25:54.460Z,100918.06
2023-01-19T22:28:26.478Z,100920.59
2023-01-19T22:31:13.392Z,100919.38
2023-01-19T22:33:45.753Z,100921.78
2023-01-19T22:36:23.079Z,100921.81
2023-01-19T22:39:06.191Z,100921.97
2023-01-19T22:41:44.963Z,100926.00
2023-01-19T22:44:21.210Z,100923.13
2023-01-19T22:46:56.089Z,100927.31
2023-01-19T22:49:28.375Z,100924.06
2023-01-19T22:52:00.555Z,100920.47
2023-01-19T22:54:32.748Z,100924.63
2023-01-19T22:57:06.982Z,100927.16
2023-01-19T22:59:43.847Z,100927.16
2023-01-19T23:02:16.215Z,100921.44
2023-01-19T23:04:48.221Z,100916.47
2023-01-19T23:07:20.485Z,100915.41
2023-01-19T23:09:52.440Z,100921.47
2023-01-19T23:12:24.836Z,100917.00
2023-01-19T23:14:56.816Z,100919.53
2023-01-19T23:17:28.811Z,100914.53
2023-01-19T23:20:00.867Z,100922.25
2023-01-19T23:22:32.857Z,100918.59
2023-01-19T23:25:11.218Z,100923.13
2023-01-19T23:27:43.383Z,100922.34
2023-01-19T23:30:15.866Z,100919.84
2023-01-19T23:32:49.337Z,100924.16
2023-01-19T23:35:21.380Z,100934.47
2023-01-19T23:37:53.346Z,100939.47
2023-01-19T23:40:25.433Z,100933.25
2023-01-19T23:42:57.619Z,100938.25
2023-01-19T23:45:33.745Z,100937.16
2023-01-19T23:48:06.221Z,100941.53
2023-01-19T23:50:40.947Z,100944.13
2023-01-19T23:53:13.250Z,100944.84
2023-01-19T23:55:45.264Z,100946.34
2023-01-19T23:58:17.247Z,100938.81
